createdAt,value
2018-01-29T00:00:03.540Z,5.60
2018-01-29T00:02:29.295Z,4.83
2018-01-29T00:04:55.053Z,6.27
2018-01-29T00:07:20.809Z,5.07
2018-01-29T00:09:46.571Z,5.90
2018-01-29T00:12:12.335Z,6.03
2018-01-29T00:14:38.103Z,5.47
2018-01-29T00:17:03.871Z,6.10
2018-01-29T00:19:29.639Z,7.07
2018-01-29T00:21:55.405Z,8.30
2018-01-29T00:24:21.172Z,8.50
2018-01-29T00:26:46.951Z,7.43
2018-01-29T00:29:12.707Z,10.00
2018-01-29T00:31:38.484Z,8.97
2018-01-29T00:34:04.256Z,6.67
2018-01-29T00:36:30.020Z,6.67
2018-01-29T00:38:55.785Z,8.30
2018-01-29T00:41:21.547Z,9.60
2018-01-29T00:43:47.300Z,9.47
2018-01-29T00:46:13.054Z,7.97
2018-01-29T00:48:38.826Z,7.60
2018-01-29T00:51:04.599Z,6.73
2018-01-29T00:53:30.371Z,6.80
2018-01-29T00:55:56.159Z,7.77
2018-01-29T00:58:21.924Z,9.73
2018-01-29T01:00:47.692Z,8.37
2018-01-29T01:03:13.464Z,9.07
2018-01-29T01:05:39.227Z,8.93
2018-01-29T01:08:04.992Z,8.97
2018-01-29T01:10:30.760Z,9.83
2018-01-29T01:12:56.506Z,10.17
2018-01-29T01:15:22.262Z,9.40
2018-01-29T01:17:48.011Z,8.67
2018-01-29T01:20:13.781Z,8.63
2018-01-29T01:22:39.552Z,8.80
2018-01-29T01:25:05.328Z,8.27
2018-01-29T01:27:31.094Z,10.17
2018-01-29T01:29:56.891Z,11.13
2018-01-29T01:32:22.651Z,10.63
2018-01-29T01:34:48.429Z,9.93
2018-01-29T01:37:14.191Z,9.63
2018-01-29T01:39:39.982Z,9.70
2018-01-29T01:42:05.760Z,8.90
2018-01-29T01:44:31.523Z,9.97
2018-01-29T01:46:57.294Z,8.50
2018-01-29T01:49:29.264Z,7.93
2018-01-29T01:51:55.043Z,8.13
2018-01-29T01:54:20.824Z,9.43
2018-01-29T01:56:46.597Z,8.10
2018-01-29T01:59:12.371Z,7.63
2018-01-29T02:01:38.147Z,9.53
2018-01-29T02:04:03.920Z,8.57
2018-01-29T02:06:29.703Z,6.90
2018-01-29T02:08:55.467Z,6.47
2018-01-29T02:11:21.241Z,7.03
2018-01-29T02:13:47.015Z,6.63
2018-01-29T02:16:12.802Z,6.13
2018-01-29T02:18:38.564Z,6.70
2018-01-29T02:21:04.326Z,6.60
2018-01-29T02:23:30.087Z,5.27
2018-01-29T02:25:55.844Z,5.17
2018-01-29T02:28:21.619Z,4.97
2018-01-29T02:30:47.416Z,5.27
2018-01-29T02:33:13.207Z,5.20
2018-01-29T02:35:38.966Z,4.53
2018-01-29T02:38:04.744Z,5.33
2018-01-29T02:40:30.518Z,5.57
2018-01-29T02:42:56.313Z,6.80
2018-01-29T02:45:22.095Z,6.13
2018-01-29T02:47:47.884Z,6.30
2018-01-29T02:50:13.660Z,6.77
2018-01-29T02:52:39.465Z,5.30
2018-01-29T02:55:05.240Z,6.13
2018-01-29T02:57:31.035Z,5.40
2018-01-29T02:59:56.815Z,6.23
2018-01-29T03:02:22.587Z,6.63
2018-01-29T03:04:48.373Z,6.77
2018-01-29T03:07:14.147Z,8.03
2018-01-29T03:09:39.939Z,7.07
2018-01-29T03:12:05.716Z,6.87
2018-01-29T03:14:31.505Z,7.60
2018-01-29T03:16:57.275Z,8.67
2018-01-29T03:19:23.046Z,9.77
2018-01-29T03:21:48.820Z,10.50
2018-01-29T03:24:14.591Z,10.83
2018-01-29T03:26:40.363Z,11.93
2018-01-29T03:29:06.148Z,12.00
2018-01-29T03:31:31.911Z,12.03
2018-01-29T03:33:57.680Z,10.80
2018-01-29T03:36:23.443Z,11.33
2018-01-29T03:38:49.214Z,11.10
2018-01-29T03:41:14.974Z,9.13
2018-01-29T03:43:40.744Z,10.83
2018-01-29T03:46:06.530Z,11.27
2018-01-29T03:48:32.304Z,11.33
2018-01-29T03:50:58.066Z,12.20
2018-01-29T03:53:23.832Z,12.30
2018-01-29T03:55:49.575Z,12.17
2018-01-29T03:58:15.323Z,12.17
2018-01-29T04:00:41.102Z,10.83
2018-01-29T04:03:06.869Z,8.90
2018-01-29T04:05:32.656Z,8.90
2018-01-29T04:07:58.427Z,9.40
2018-01-29T04:10:24.209Z,9.30
2018-01-29T04:12:49.973Z,7.83
2018-01-29T04:15:15.775Z,9.40
2018-01-29T04:17:41.546Z,7.97
2018-01-29T04:20:07.340Z,7.53
2018-01-29T04:22:33.113Z,6.97
2018-01-29T04:24:58.893Z,7.63
2018-01-29T04:27:24.724Z,8.50
2018-01-29T04:29:50.512Z,8.27
2018-01-29T04:32:16.275Z,8.63
2018-01-29T04:34:42.065Z,8.20
2018-01-29T04:37:07.843Z,8.70
2018-01-29T04:39:33.604Z,8.77
2018-01-29T04:41:59.377Z,8.23
2018-01-29T04:44:25.158Z,7.47
2018-01-29T04:46:50.942Z,9.80
2018-01-29T04:49:16.699Z,7.33
2018-01-29T04:51:42.460Z,6.90
2018-01-29T04:54:08.207Z,7.30
2018-01-29T04:56:36.975Z,8.50
2018-01-29T04:59:02.745Z,9.73
2018-01-29T05:01:28.512Z,8.87
2018-01-29T05:03:54.277Z,8.80
2018-01-29T05:06:20.040Z,9.37
2018-01-29T05:08:45.800Z,8.80
2018-01-29T05:11:11.554Z,8.20
2018-01-29T05:13:37.301Z,7.33
2018-01-29T05:16:03.060Z,7.73
2018-01-29T05:18:28.819Z,7.57
2018-01-29T05:20:54.579Z,7.17
2018-01-29T05:23:20.327Z,6.60
2018-01-29T05:25:46.103Z,7.00
2018-01-29T05:28:11.847Z,6.87
2018-01-29T05:30:37.631Z,6.50
2018-01-29T05:33:03.393Z,7.03
2018-01-29T05:35:29.935Z,6.90
2018-01-29T05:40:57.235Z,6.28
2018-01-29T05:43:22.999Z,6.63
2018-01-29T05:45:48.771Z,6.57
2018-01-29T05:48:14.557Z,6.60
2018-01-29T05:50:40.315Z,6.47
2018-01-29T05:53:06.067Z,6.40
2018-01-29T05:55:31.823Z,6.00
2018-01-29T05:57:57.603Z,5.30
2018-01-29T06:00:23.360Z,4.73
2018-01-29T06:02:49.112Z,5.37
2018-01-29T06:05:14.873Z,4.87
2018-01-29T06:07:40.631Z,4.83
2018-01-29T06:10:06.383Z,4.63
2018-01-29T06:12:32.136Z,5.47
2018-01-29T06:14:57.880Z,5.00
2018-01-29T06:17:23.653Z,4.47
2018-01-29T06:19:49.388Z,4.43
2018-01-29T06:22:15.143Z,4.57
2018-01-29T06:24:40.895Z,4.27
2018-01-29T06:27:06.650Z,4.30
2018-01-29T06:29:32.407Z,4.73
2018-01-29T06:31:58.166Z,4.20
2018-01-29T06:34:23.952Z,3.97
2018-01-29T06:36:49.719Z,3.73
2018-01-29T06:39:15.479Z,3.80
2018-01-29T06:41:41.214Z,3.87
2018-01-29T06:44:06.970Z,4.10
2018-01-29T06:46:32.715Z,3.33
2018-01-29T06:48:58.483Z,3.83
2018-01-29T06:51:24.245Z,3.50
2018-01-29T06:53:50.023Z,3.00
2018-01-29T06:56:16.639Z,3.80
2018-01-29T06:58:42.394Z,3.05
2018-01-29T07:01:08.148Z,3.20
2018-01-29T07:03:33.895Z,3.57
2018-01-29T07:05:59.635Z,3.87
2018-01-29T07:08:25.403Z,3.27
2018-01-29T07:10:51.154Z,3.50
2018-01-29T07:13:16.912Z,2.93
2018-01-29T07:15:42.667Z,3.60
2018-01-29T07:18:08.424Z,2.70
2018-01-29T07:20:34.175Z,3.40
2018-01-29T07:22:59.919Z,2.90
2018-01-29T07:25:25.665Z,3.00
2018-01-29T07:27:51.420Z,3.10
2018-01-29T07:30:17.202Z,2.90
2018-01-29T07:32:42.967Z,3.10
2018-01-29T07:35:08.734Z,2.93
2018-01-29T07:37:34.505Z,3.13
2018-01-29T07:40:00.267Z,3.10
2018-01-29T07:42:26.025Z,3.20
2018-01-29T07:44:51.792Z,2.83
2018-01-29T07:47:17.560Z,3.03
2018-01-29T07:49:43.343Z,3.53
2018-01-29T07:52:09.106Z,3.20
2018-01-29T07:54:34.877Z,2.80
2018-01-29T07:57:00.652Z,3.17
2018-01-29T07:59:26.436Z,3.70
2018-01-29T08:01:52.207Z,3.83
2018-01-29T08:04:17.983Z,3.83
2018-01-29T08:06:43.756Z,3.40
2018-01-29T08:09:09.519Z,3.60
2018-01-29T08:11:35.292Z,2.77
2018-01-29T08:14:01.065Z,2.80
2018-01-29T08:16:26.869Z,3.00
2018-01-29T08:18:52.623Z,3.20
2018-01-29T08:21:18.401Z,3.77
2018-01-29T08:23:44.163Z,3.10
2018-01-29T08:26:09.944Z,3.23
2018-01-29T08:28:35.719Z,3.70
2018-01-29T08:31:01.500Z,3.20
2018-01-29T08:33:27.264Z,3.10
2018-01-29T08:35:53.105Z,3.27
2018-01-29T08:38:18.843Z,3.30
2018-01-29T08:40:44.651Z,2.97
2018-01-29T08:43:10.424Z,3.00
2018-01-29T08:45:36.204Z,3.63
2018-01-29T08:48:01.978Z,3.33
2018-01-29T08:50:27.744Z,2.97
2018-01-29T08:52:53.522Z,2.93
2018-01-29T08:55:19.285Z,2.70
2018-01-29T08:57:45.060Z,3.07
2018-01-29T09:00:10.832Z,3.00
2018-01-29T09:02:36.620Z,2.80
2018-01-29T09:05:02.387Z,2.70
2018-01-29T09:07:28.167Z,3.07
2018-01-29T09:09:53.933Z,2.67
2018-01-29T09:12:19.716Z,3.17
2018-01-29T09:14:45.488Z,3.60
2018-01-29T09:17:11.244Z,2.70
2018-01-29T09:19:37.008Z,3.10
2018-01-29T09:22:02.780Z,3.00
2018-01-29T09:24:28.557Z,3.40
2018-01-29T09:26:54.327Z,3.60
2018-01-29T09:29:20.119Z,3.70
2018-01-29T09:31:45.876Z,3.10
2018-01-29T09:34:11.633Z,3.37
2018-01-29T09:36:37.384Z,3.70
2018-01-29T09:39:03.168Z,3.77
2018-01-29T09:41:28.920Z,4.10
2018-01-29T09:43:54.684Z,3.30
2018-01-29T09:46:20.456Z,3.50
2018-01-29T09:48:46.231Z,3.90
2018-01-29T09:51:11.979Z,4.20
2018-01-29T09:53:37.751Z,3.77
2018-01-29T09:56:03.516Z,3.77
2018-01-29T09:58:29.292Z,3.80
2018-01-29T10:00:55.052Z,3.93
2018-01-29T10:03:20.813Z,3.50
2018-01-29T10:05:46.609Z,3.97
2018-01-29T10:08:12.368Z,3.20
2018-01-29T10:10:38.127Z,3.80
2018-01-29T10:13:03.883Z,3.20
2018-01-29T10:15:29.635Z,3.40
2018-01-29T10:17:55.381Z,3.53
2018-01-29T10:20:21.143Z,2.73
2018-01-29T10:22:46.907Z,3.23
2018-01-29T10:25:12.667Z,2.90
2018-01-29T10:27:38.423Z,2.87
2018-01-29T10:30:04.199Z,3.53
2018-01-29T10:32:29.955Z,2.70
2018-01-29T10:34:55.716Z,3.00
2018-01-29T10:37:21.483Z,3.27
2018-01-29T10:39:47.241Z,2.53
2018-01-29T10:42:12.995Z,2.03
2018-01-29T10:44:38.740Z,2.23
2018-01-29T10:47:04.499Z,2.30
2018-01-29T10:49:30.242Z,2.40
2018-01-29T10:51:56.023Z,2.10
2018-01-29T10:54:21.786Z,2.33
2018-01-29T10:56:47.549Z,2.00
2018-01-29T10:59:13.311Z,1.90
2018-01-29T11:01:45.230Z,1.80
2018-01-29T11:04:11.004Z,1.70
2018-01-29T11:06:36.751Z,1.70
2018-01-29T11:09:02.507Z,1.47
2018-01-29T11:11:28.262Z,1.40
2018-01-29T11:13:54.003Z,1.47
2018-01-29T11:16:19.747Z,1.80
2018-01-29T11:18:45.514Z,1.40
2018-01-29T11:21:11.283Z,1.30
2018-01-29T11:23:37.044Z,1.43
2018-01-29T11:26:02.799Z,1.27
2018-01-29T11:28:28.555Z,1.50
2018-01-29T11:30:54.324Z,1.20
2018-01-29T11:33:20.095Z,1.20
2018-01-29T11:35:45.856Z,1.60
2018-01-29T11:38:11.617Z,1.20
2018-01-29T11:40:37.379Z,1.10
2018-01-29T11:43:03.159Z,1.00
2018-01-29T11:45:28.921Z,1.30
2018-01-29T11:47:54.684Z,1.20
2018-01-29T11:50:20.445Z,1.20
2018-01-29T11:52:46.205Z,1.23
2018-01-29T11:55:11.969Z,1.40
2018-01-29T11:57:37.749Z,1.40
2018-01-29T12:00:03.517Z,1.40
2018-01-29T12:02:29.274Z,1.30
2018-01-29T12:04:55.043Z,1.60
2018-01-29T12:07:20.848Z,1.30
2018-01-29T12:09:46.595Z,2.20
2018-01-29T12:12:12.356Z,1.60
2018-01-29T12:14:38.136Z,2.03
2018-01-29T12:17:03.909Z,5.97
2018-01-29T12:19:29.679Z,2.67
2018-01-29T12:21:55.454Z,2.03
2018-01-29T12:24:21.236Z,1.53
2018-01-29T12:26:47.000Z,1.40
2018-01-29T12:29:12.781Z,1.20
2018-01-29T12:31:38.534Z,1.30
2018-01-29T12:34:04.276Z,1.20
2018-01-29T12:36:30.067Z,1.53
2018-01-29T12:38:55.988Z,1.10
2018-01-29T12:41:21.762Z,1.40
2018-01-29T12:43:47.523Z,1.20
2018-01-29T12:46:13.271Z,1.40
2018-01-29T12:48:39.220Z,1.03
2018-01-29T12:51:04.991Z,1.10
2018-01-29T12:53:30.751Z,1.20
2018-01-29T12:55:56.524Z,1.07
2018-01-29T12:58:22.292Z,1.20
2018-01-29T13:00:48.059Z,1.30
2018-01-29T13:03:13.819Z,1.20
2018-01-29T13:05:39.582Z,1.20
2018-01-29T13:08:05.331Z,1.20
2018-01-29T13:10:31.093Z,1.20
2018-01-29T13:12:56.852Z,1.40
2018-01-29T13:15:22.612Z,1.33
2018-01-29T13:17:48.380Z,1.50
2018-01-29T13:20:14.143Z,1.40
2018-01-29T13:22:39.891Z,1.30
2018-01-29T13:25:05.634Z,1.50
2018-01-29T13:27:31.399Z,1.17
2018-01-29T13:29:57.180Z,1.37
2018-01-29T13:32:22.946Z,1.63
2018-01-29T13:34:48.732Z,1.50
2018-01-29T13:37:14.520Z,1.23
2018-01-29T13:39:40.284Z,1.67
2018-01-29T13:42:06.059Z,1.70
2018-01-29T13:44:31.811Z,1.50
2018-01-29T13:46:57.583Z,1.80
2018-01-29T13:49:23.336Z,1.37
2018-01-29T13:51:49.103Z,2.00
2018-01-29T13:54:14.867Z,1.67
2018-01-29T13:56:40.623Z,1.60
2018-01-29T13:59:06.417Z,1.70
2018-01-29T14:01:32.187Z,1.97
2018-01-29T14:03:57.953Z,2.13
2018-01-29T14:06:23.779Z,1.80
2018-01-29T14:08:49.538Z,2.07
2018-01-29T14:11:15.327Z,2.03
2018-01-29T14:13:41.087Z,1.87
2018-01-29T14:16:06.854Z,2.30
2018-01-29T14:18:32.635Z,2.20
2018-01-29T14:20:58.393Z,2.30
2018-01-29T14:23:24.155Z,2.40
2018-01-29T14:25:49.967Z,1.87
2018-01-29T14:28:15.699Z,2.13
2018-01-29T14:30:41.472Z,2.07
2018-01-29T14:33:07.252Z,1.60
2018-01-29T14:35:33.009Z,2.07
2018-01-29T14:37:58.784Z,1.90
2018-01-29T14:40:24.544Z,1.63
2018-01-29T14:42:50.331Z,1.83
2018-01-29T14:45:16.086Z,2.07
2018-01-29T14:47:41.852Z,1.90
2018-01-29T14:50:07.635Z,1.90
2018-01-29T14:52:33.399Z,2.20
2018-01-29T14:54:59.176Z,2.10
2018-01-29T14:57:24.931Z,2.00
2018-01-29T14:59:50.704Z,1.90
2018-01-29T15:02:16.472Z,2.20
2018-01-29T15:04:42.245Z,2.43
2018-01-29T15:07:08.015Z,2.07
2018-01-29T15:09:33.771Z,1.77
2018-01-29T15:11:59.527Z,1.80
2018-01-29T15:14:25.307Z,1.90
2018-01-29T15:16:51.075Z,1.80
2018-01-29T15:19:16.857Z,2.43
2018-01-29T15:21:42.619Z,2.60
2018-01-29T15:24:08.403Z,2.30
2018-01-29T15:26:34.175Z,2.30
2018-01-29T15:28:59.932Z,2.03
2018-01-29T15:31:25.698Z,1.93
2018-01-29T15:33:51.455Z,2.30
2018-01-29T15:36:17.207Z,2.10
2018-01-29T15:38:42.943Z,2.37
2018-01-29T15:41:08.707Z,1.90
2018-01-29T15:43:34.459Z,1.97
2018-01-29T15:46:00.211Z,2.00
2018-01-29T15:48:25.960Z,1.90
2018-01-29T15:50:51.742Z,1.90
2018-01-29T15:53:17.518Z,1.73
2018-01-29T15:55:43.312Z,2.20
2018-01-29T15:58:09.054Z,2.30
2018-01-29T16:00:34.859Z,1.93
2018-01-29T16:03:00.607Z,2.77
2018-01-29T16:05:26.373Z,2.10
2018-01-29T16:07:52.146Z,2.53
2018-01-29T16:10:18.032Z,2.20
2018-01-29T16:12:43.855Z,1.90
2018-01-29T16:15:09.600Z,2.10
2018-01-29T16:17:35.360Z,2.23
2018-01-29T16:20:01.112Z,2.40
2018-01-29T16:22:26.871Z,2.10
2018-01-29T16:24:52.626Z,2.23
2018-01-29T16:27:18.394Z,2.00
2018-01-29T16:29:44.182Z,2.00
2018-01-29T16:32:09.951Z,2.50
2018-01-29T16:34:35.706Z,2.27
2018-01-29T16:37:01.471Z,2.00
2018-01-29T16:39:27.220Z,2.30
2018-01-29T16:41:53.040Z,2.30
2018-01-29T16:44:18.808Z,1.83
2018-01-29T16:46:44.567Z,2.50
2018-01-29T16:49:10.315Z,1.83
2018-01-29T16:51:36.092Z,2.30
2018-01-29T16:54:01.851Z,2.43
2018-01-29T16:56:27.654Z,2.30
2018-01-29T16:58:53.387Z,2.10
2018-01-29T17:01:19.164Z,2.57
2018-01-29T17:03:44.931Z,2.60
2018-01-29T17:06:10.695Z,2.30
2018-01-29T17:08:36.471Z,2.67
2018-01-29T17:11:02.220Z,2.70
2018-01-29T17:13:27.984Z,3.27
2018-01-29T17:15:53.747Z,3.00
2018-01-29T17:18:19.514Z,3.37
2018-01-29T17:20:45.276Z,2.70
2018-01-29T17:23:11.043Z,2.53
2018-01-29T17:25:36.827Z,2.87
2018-01-29T17:28:02.607Z,3.43
2018-01-29T17:30:28.403Z,2.70
2018-01-29T17:32:54.169Z,3.37
2018-01-29T17:35:19.927Z,2.57
2018-01-29T17:37:45.707Z,3.37
2018-01-29T17:40:11.463Z,2.53
2018-01-29T17:42:37.232Z,3.10
2018-01-29T17:45:03.022Z,3.60
2018-01-29T17:47:28.784Z,3.80
2018-01-29T17:49:54.563Z,3.03
2018-01-29T17:52:20.314Z,3.23
2018-01-29T17:54:46.090Z,3.40
2018-01-29T17:57:11.844Z,2.93
2018-01-29T17:59:37.607Z,3.00
2018-01-29T18:02:03.376Z,3.10
2018-01-29T18:04:29.168Z,3.47
2018-01-29T18:06:54.927Z,2.90
2018-01-29T18:09:20.720Z,3.20
2018-01-29T18:11:46.484Z,2.70
2018-01-29T18:14:12.272Z,2.77
2018-01-29T18:16:38.059Z,3.00
2018-01-29T18:19:03.839Z,3.00
2018-01-29T18:21:29.599Z,3.10
2018-01-29T18:23:55.359Z,3.10
2018-01-29T18:26:21.144Z,3.63
2018-01-29T18:28:46.943Z,3.47
2018-01-29T18:31:12.760Z,3.20
2018-01-29T18:33:38.528Z,3.60
2018-01-29T18:36:04.312Z,3.57
2018-01-29T18:38:30.084Z,3.23
2018-01-29T18:40:55.863Z,3.30
2018-01-29T18:43:21.644Z,3.17
2018-01-29T18:45:47.411Z,4.03
2018-01-29T18:48:13.180Z,3.57
2018-01-29T18:50:38.945Z,4.10
2018-01-29T18:53:04.755Z,3.27
2018-01-29T18:55:30.540Z,3.90
2018-01-29T18:57:56.319Z,3.60
2018-01-29T19:00:22.076Z,3.40
2018-01-29T19:02:47.847Z,4.60
2018-01-29T19:05:13.615Z,3.80
2018-01-29T19:07:39.395Z,4.53
2018-01-29T19:10:05.138Z,4.37
2018-01-29T19:12:30.891Z,4.77
2018-01-29T19:14:56.656Z,3.70
2018-01-29T19:17:22.426Z,3.60
2018-01-29T19:19:48.260Z,4.70
2018-01-29T19:22:14.027Z,4.30
2018-01-29T19:24:39.778Z,3.83
2018-01-29T19:27:05.550Z,4.27
2018-01-29T19:29:31.358Z,4.33
2018-01-29T19:31:57.100Z,4.83
2018-01-29T19:34:22.850Z,3.73
2018-01-29T19:36:48.758Z,4.20
2018-01-29T19:39:14.515Z,4.47
2018-01-29T19:41:40.282Z,3.70
2018-01-29T19:44:06.044Z,3.93
2018-01-29T19:46:31.811Z,4.23
2018-01-29T19:48:57.586Z,3.93
2018-01-29T19:51:23.332Z,5.63
2018-01-29T19:53:49.091Z,4.97
2018-01-29T19:56:14.847Z,4.50
2018-01-29T19:58:40.619Z,4.63
2018-01-29T20:01:06.399Z,4.63
2018-01-29T20:03:32.182Z,4.10
2018-01-29T20:05:58.114Z,4.60
2018-01-29T20:08:23.875Z,5.13
2018-01-29T20:10:49.631Z,3.93
2018-01-29T20:13:15.405Z,3.10
2018-01-29T20:15:41.171Z,4.63
2018-01-29T20:18:06.960Z,3.97
2018-01-29T20:20:32.724Z,3.57
2018-01-29T20:22:58.491Z,3.60
2018-01-29T20:25:24.258Z,4.73
2018-01-29T20:27:50.035Z,3.70
2018-01-29T20:30:15.871Z,3.70
2018-01-29T20:32:41.627Z,2.97
2018-01-29T20:35:07.402Z,2.90
2018-01-29T20:37:33.159Z,3.83
2018-01-29T20:39:58.931Z,3.97
2018-01-29T20:42:24.746Z,4.27
2018-01-29T20:44:50.503Z,4.40
2018-01-29T20:47:16.275Z,4.23
2018-01-29T20:49:42.038Z,4.27
2018-01-29T20:52:07.819Z,4.93
2018-01-29T20:54:33.579Z,3.90
2018-01-29T20:56:59.343Z,4.33
2018-01-29T20:59:25.128Z,4.50
2018-01-29T21:01:50.883Z,4.67
2018-01-29T21:04:16.652Z,5.27
2018-01-29T21:06:42.456Z,4.40
2018-01-29T21:09:08.182Z,4.67
2018-01-29T21:11:33.959Z,4.70
2018-01-29T21:13:59.727Z,5.00
2018-01-29T21:16:25.498Z,4.50
2018-01-29T21:18:51.247Z,4.30
2018-01-29T21:21:16.998Z,4.50
2018-01-29T21:23:42.751Z,5.13
2018-01-29T21:26:08.527Z,4.73
2018-01-29T21:28:34.279Z,4.90
2018-01-29T21:31:00.060Z,4.80
2018-01-29T21:33:25.810Z,5.63
2018-01-29T21:35:51.591Z,5.93
2018-01-29T21:38:17.352Z,4.80
2018-01-29T21:40:43.123Z,4.97
2018-01-29T21:43:08.888Z,5.03
2018-01-29T21:45:34.704Z,5.10
2018-01-29T21:48:02.105Z,5.13
2018-01-29T21:50:27.952Z,4.97
2018-01-29T21:52:53.716Z,5.40
2018-01-29T21:55:19.471Z,4.20
2018-01-29T21:57:45.251Z,4.43
2018-01-29T22:00:11.010Z,4.33
2018-01-29T22:02:36.869Z,4.37
2018-01-29T22:05:02.630Z,4.00
2018-01-29T22:07:28.556Z,4.60
2018-01-29T22:09:54.331Z,4.47
2018-01-29T22:12:20.095Z,4.10
2018-01-29T22:14:45.848Z,4.33
2018-01-29T22:17:11.621Z,4.00
2018-01-29T22:19:37.367Z,4.40
2018-01-29T22:22:03.112Z,4.97
2018-01-29T22:24:28.896Z,4.57
2018-01-29T22:26:54.811Z,4.43
2018-01-29T22:29:20.587Z,5.57
2018-01-29T22:31:46.350Z,5.33
2018-01-29T22:34:12.122Z,4.60
2018-01-29T22:36:37.894Z,4.83
2018-01-29T22:39:03.671Z,3.77
2018-01-29T22:41:29.423Z,4.63
2018-01-29T22:43:55.225Z,4.93
2018-01-29T22:46:20.979Z,3.93
2018-01-29T22:48:46.739Z,4.33
2018-01-29T22:51:12.503Z,4.00
2018-01-29T22:53:38.271Z,5.77
2018-01-29T22:56:04.042Z,4.13
2018-01-29T22:58:29.876Z,4.13
2018-01-29T23:00:55.645Z,3.80
2018-01-29T23:03:21.424Z,4.00
2018-01-29T23:05:47.183Z,3.50
2018-01-29T23:08:13.018Z,4.60
2018-01-29T23:10:38.860Z,4.67
2018-01-29T23:13:04.660Z,3.83
2018-01-29T23:15:30.584Z,4.90
2018-01-29T23:17:56.586Z,4.40
2018-01-29T23:20:22.461Z,4.40
2018-01-29T23:22:48.324Z,4.70
2018-01-29T23:25:14.104Z,5.27
2018-01-29T23:27:39.922Z,4.13
2018-01-29T23:30:05.700Z,4.73
2018-01-29T23:32:31.523Z,4.20
2018-01-29T23:34:57.541Z,4.30
2018-01-29T23:37:23.307Z,3.50
2018-01-29T23:39:49.071Z,3.70
2018-01-29T23:42:14.885Z,3.10
2018-01-29T23:44:40.650Z,3.50
2018-01-29T23:47:06.408Z,4.30
2018-01-29T23:49:32.178Z,4.07
2018-01-29T23:51:58.039Z,4.23
2018-01-29T23:54:23.807Z,3.93
2018-01-29T23:56:49.610Z,4.57
2018-01-29T23:59:15.579Z,5.23
